createdAt,value
2022-11-13T00:01:50.950Z,0
2022-11-13T00:11:28.044Z,0
2022-11-13T00:21:03.979Z,0
2022-11-13T00:30:40.635Z,0
2022-11-13T00:40:17.420Z,0
2022-11-13T00:49:54.080Z,0
2022-11-13T00:59:30.223Z,0
2022-11-13T01:09:07.154Z,0
2022-11-13T01:18:44.276Z,0
2022-11-13T01:28:21.240Z,0
2022-11-13T01:37:57.787Z,0
2022-11-13T01:47:34.720Z,0
2022-11-13T01:57:11.303Z,0
2022-11-13T02:06:48.240Z,0
2022-11-13T02:26:01.841Z,0
2022-11-13T02:45:14.980Z,0
2022-11-13T02:54:51.345Z,0
2022-11-13T03:04:38.518Z,0
2022-11-13T03:14:04.551Z,0
2022-11-13T03:23:41.230Z,0
2022-11-13T03:42:54.048Z,0
2022-11-13T03:52:30.897Z,0
2022-11-13T04:02:07.463Z,0
2022-11-13T04:11:43.729Z,0
2022-11-13T04:30:57.134Z,0
2022-11-13T04:59:47.493Z,0
2022-11-13T05:09:24.095Z,0
2022-11-13T05:19:00.894Z,0
2022-11-13T05:28:37.322Z,0
2022-11-13T05:47:50.701Z,0
2022-11-13T06:07:03.682Z,0
2022-11-13T06:16:40.527Z,0
2022-11-13T06:26:16.838Z,0
2022-11-13T06:35:53.849Z,5.63
2022-11-13T07:04:43.246Z,28.13
2022-11-13T07:23:56.608Z,50.63
2022-11-13T07:33:33.641Z,61.88
2022-11-13T07:43:10.914Z,73.13
2022-11-13T07:52:47.711Z,78.75
2022-11-13T08:02:26.629Z,90
2022-11-13T08:12:01.695Z,95.63
2022-11-13T08:21:38.339Z,140.63
2022-11-13T08:31:15.908Z,174.38
2022-11-13T08:40:53.120Z,185.63
2022-11-13T08:50:30.783Z,230.63
2022-11-13T09:00:07.605Z,202.5
2022-11-13T09:09:45.558Z,191.25
2022-11-13T09:19:21.620Z,163.13
2022-11-13T09:28:57.939Z,174.38
2022-11-13T09:38:34.471Z,236.25
2022-11-13T09:48:12.375Z,202.5
2022-11-13T09:57:49.201Z,247.5
2022-11-13T10:07:26.943Z,315
2022-11-13T10:17:05.581Z,331.88
2022-11-13T10:26:43.445Z,343.13
2022-11-13T10:55:36.404Z,405
2022-11-13T11:05:14.371Z,461.25
2022-11-13T11:14:52.170Z,495
2022-11-13T11:24:30.999Z,624.38
2022-11-13T11:34:09.066Z,635.63
2022-11-13T11:43:47.560Z,579.38
2022-11-13T11:53:25.394Z,540
2022-11-13T12:03:03.474Z,697.5
2022-11-13T12:12:40.073Z,523.13
2022-11-13T12:22:13.444Z,725.63
2022-11-13T12:31:52.143Z,399.38
2022-11-13T12:41:27.353Z,365.63
2022-11-13T12:51:05.567Z,860.63
2022-11-13T13:01:12.346Z,2176.88
2022-11-13T13:10:58.751Z,2278.13
2022-11-13T13:30:17.167Z,1861.88
2022-11-13T13:39:49.467Z,900
2022-11-13T13:49:21.181Z,984.38
2022-11-13T13:58:48.011Z,495
2022-11-13T14:08:13.639Z,101.25
2022-11-13T14:17:44.599Z,61.88
2022-11-13T14:27:16.183Z,50.63
2022-11-13T14:36:51.009Z,39.38
2022-11-13T14:46:26.256Z,33.75
2022-11-13T14:56:02.660Z,22.5
2022-11-13T15:05:38.146Z,16.88
2022-11-13T15:15:14.768Z,5.63
2022-11-13T15:24:50.641Z,5.63
2022-11-13T15:34:27.208Z,0
2022-11-13T15:44:03.440Z,0
2022-11-13T15:53:39.437Z,0
2022-11-13T16:03:15.779Z,0
2022-11-13T16:12:52.512Z,0
2022-11-13T16:32:05.170Z,0
2022-11-13T16:41:41.248Z,0
2022-11-13T16:51:18.182Z,0
2022-11-13T17:00:58.948Z,0
2022-11-13T17:20:08.561Z,0
2022-11-13T17:29:45.023Z,0
2022-11-13T17:39:21.778Z,0
2022-11-13T17:48:58.256Z,0
2022-11-13T17:58:34.769Z,0
2022-11-13T18:17:48.525Z,0
2022-11-13T18:27:24.833Z,0
2022-11-13T18:37:01.781Z,0
2022-11-13T18:46:38.555Z,0
2022-11-13T18:56:15.370Z,0
2022-11-13T19:05:52.470Z,0
2022-11-13T19:15:29.256Z,0
2022-11-13T19:25:05.834Z,0
2022-11-13T19:34:46.360Z,0
2022-11-13T19:44:19.810Z,0
2022-11-13T19:53:56.673Z,0
2022-11-13T20:03:32.983Z,0
2022-11-13T20:13:09.672Z,0
2022-11-13T20:22:46.054Z,0
2022-11-13T20:32:23.132Z,0
2022-11-13T20:41:59.914Z,0
2022-11-13T20:51:36.514Z,0
2022-11-13T21:01:13.064Z,0
2022-11-13T21:20:26.616Z,0
2022-11-13T21:30:03.332Z,0
2022-11-13T21:39:39.825Z,0
2022-11-13T21:58:53.964Z,0
2022-11-13T22:08:30.990Z,0
2022-11-13T22:18:07.140Z,0
2022-11-13T22:27:43.998Z,0
2022-11-13T22:37:20.796Z,0
2022-11-13T22:46:57.403Z,0
2022-11-13T22:56:34.224Z,0
2022-11-13T23:06:11.038Z,0
2022-11-13T23:15:47.316Z,0
2022-11-13T23:35:01.058Z,0
2022-11-13T23:44:37.664Z,0
2022-11-13T23:54:14.327Z,0
